Pembroke, NC (28372)

12:41 AM EST on February 11, 2016 (GMT -0500)
Lumberton Municipal | | Change Station
CLOSE
Current Station
Airport
Location: Lumberton,
Elevation: 125 ft
Nearby Weather Stations
Active Advisory: Flood Warning

Elev 125 ft 34.61 °N, 79.06 °W | Updated 47 minutes ago

Clear
Clear
30 °F
Feels Like 25 °F
N
5
Wind Variable Wind from WNW

Today
High -- | Low -- °F
--% Chance of Precip.
Yesterday
High -- | Low -- °F
Precip. -- in
Pressure 30.10 in
Visibility 10.0 miles
Clouds Clear
Windchill 25 °F
Dew Point 16 °F
Humidity 56%
Rainfall 0.00 in
Snow Depth Not available.
7:06 AM 5:55 PM
Waxing Crescent, 9% visible
METAR KLBT 110454Z AUTO 30004KT 10SM CLR M01/M09 A3010 RMK AO2 SLP192 T10111089 400501028
Pressure 30.10 in
Visibility 10.0 miles
Clouds Clear
Windchill 25 °F
Dew Point 16 °F
Humidity 56%
Rainfall 0.00 in
Snow Depth Not available.
7:06 AM 5:55 PM
Waxing Crescent, 9% visible
METAR KLBT 110454Z AUTO 30004KT 10SM CLR M01/M09 A3010 RMK AO2 SLP192 T10111089 400501028

10-Day Weather Forecast

Almanac

Astronomy

Feb. 11, 2016 Rise Set
Actual Time
Civil Twilight
Nautical Twilight
Astronomical Twilight
Moon
Length of Visible Light
Length of Day
Tomorrow will be .
, % of the Moon is Illuminated

Today's Extremes

State Highs State Lows

Community

WunderPhotos

Upload Photos

1,892,023 photos uploaded!

WunderBlog® & News

Nearby

Air Quality

  Air Quality AQ Index Pollutant
Not available.

Snow Depth

Station Depth Elevation

Earthquake Activity

City Distance Mag. Time & Date
Minimum magnitude displayed is 2.5.

Coastal Water Temperatures

Place Temperature

Stations

Nearby Weather Stations

Station Location Temp. Windchill Dew Point Humidity Wind Precip. Elev Updated Type
                   

Watches & Warnings

Flood Warning
Issued: 8:14 PM EST Feb. 10, 2016 – National Weather Service

The Flood Warning continues for
the lumber near Lumberton.
* Until further notice.
* At 6:59 PM Wednesday the stage was 15.21 feet.
* Flood stage is 13.0 feet.
* Minor flooding is occurring and minor flooding is forecast.
* Forecast... the river will continue to fall to a stage of 15.0 feet by Friday
morning.
* Impact... at 15.0 feet... flood waters will affect yards in The Pines area, Coxs
Pond area, and along River Road. Additional residential property will be
affected between the pepsi plant and the river on the east side of Lumberton.


Lat... Lon 3467 7916 3468 7904 3457 7891 3452 7899
          3461 7907 3458 7915